Archiv-/Tagesdaten

--Timestamp---	Temp	Chill	HIndex	Humid	Dewpt	 Wind 	HiWind	WindDir	Rain 	Barom	Solar	 ET  	 UV 
--------------	----	-----	------	-----	-----	------	------	-------	-----	-----	-----	-----	----
20110304 00:00	-1.3	-3.7	-1.3	84	-3.7	6	10	68	0.0	1028.0	0	0.000	0.0
20110304 00:05	-1.4	-4.4	-1.4	85	-3.6	8	14	68	0.0	1027.8	0	0.000	0.0
20110304 00:10	-1.4	-3.8	-1.4	84	-3.8	6	10	68	0.0	1027.9	0	0.000	0.0
20110304 00:15	-1.4	-4.9	-1.4	85	-3.6	10	16	68	0.0	1027.9	0	0.000	0.0
20110304 00:20	-1.4	-3.8	-1.4	85	-3.6	6	11	68	0.0	1027.9	0	0.000	0.0
20110304 00:25	-1.4	-3.8	-1.4	85	-3.6	6	13	68	0.0	1028.0	0	0.000	0.0
20110304 00:30	-1.4	-3.8	-1.4	85	-3.6	6	14	68	0.0	1028.0	0	0.000	0.0
20110304 00:35	-1.4	-3.8	-1.4	85	-3.6	6	13	68	0.0	1028.2	0	0.000	0.0
20110304 00:40	-1.5	-1.5	-1.5	85	-3.7	5	10	90	0.0	1028.2	0	0.000	0.0
20110304 00:45	-1.5	-1.5	-1.5	84	-3.8	5	13	68	0.0	1028.3	0	0.000	0.0
20110304 00:50	-1.6	-1.6	-1.6	84	-3.9	5	10	68	0.0	1028.3	0	0.000	0.0
20110304 00:55	-1.6	-4.0	-1.6	84	-3.9	6	11	68	0.0	1028.3	0	0.000	0.0
20110304 01:00	-1.6	-4.6	-1.6	85	-3.8	8	16	68	0.0	1028.4	0	0.000	0.0
20110304 01:05	-1.7	-4.1	-1.7	85	-3.9	6	14	68	0.0	1028.4	0	0.000	0.0
20110304 01:10	-1.7	-4.1	-1.7	85	-3.9	6	11	68	0.0	1028.5	0	0.000	0.0
20110304 01:15	-1.7	-4.8	-1.7	85	-3.9	8	16	68	0.0	1028.6	0	0.000	0.0
20110304 01:20	-1.8	-4.2	-1.8	85	-4.0	6	14	68	0.0	1028.6	0	0.000	0.0
20110304 01:25	-1.8	-4.8	-1.8	85	-4.0	8	16	68	0.0	1028.6	0	0.000	0.0
20110304 01:30	-1.8	-4.3	-1.8	85	-4.0	6	14	68	0.0	1028.7	0	0.000	0.0
20110304 01:35	-1.8	-4.3	-1.8	85	-4.0	6	10	90	0.0	1028.7	0	0.000	0.0
20110304 01:40	-1.9	-1.9	-1.9	85	-4.1	5	11	68	0.0	1028.8	0	0.000	0.0
20110304 01:45	-1.9	-4.4	-1.9	85	-4.1	6	14	90	0.0	1028.8	0	0.000	0.0
20110304 01:50	-1.9	-4.4	-1.9	85	-4.1	6	13	90	0.0	1028.8	0	0.000	0.0
20110304 01:55	-1.9	-4.4	-1.9	85	-4.1	6	13	90	0.0	1028.8	0	0.000	0.0
20110304 02:00	-1.9	-4.4	-1.9	85	-4.1	6	13	90	0.0	1028.8	0	0.000	0.0
20110304 02:05	-2.0	-2.0	-2.0	85	-4.2	5	11	90	0.0	1028.7	0	0.000	0.0
20110304 02:10	-2.0	-2.0	-2.0	85	-4.2	5	10	90	0.0	1028.9	0	0.000	0.0
20110304 02:15	-2.1	-2.1	-2.1	85	-4.2	5	8	90	0.0	1028.9	0	0.000	0.0
20110304 02:20	-2.1	-4.6	-2.1	86	-4.1	6	10	68	0.0	1028.9	0	0.000	0.0
20110304 02:25	-2.2	-2.2	-2.2	86	-4.2	5	11	68	0.0	1028.9	0	0.000	0.0
20110304 02:30	-2.2	-2.2	-2.2	86	-4.2	3	8	90	0.0	1028.9	0	0.000	0.0
20110304 02:35	-2.2	-2.2	-2.2	86	-4.2	5	10	90	0.0	1029.0	0	0.000	0.0
20110304 02:40	-2.3	-2.3	-2.3	86	-4.3	3	10	90	0.0	1028.8	0	0.000	0.0
20110304 02:45	-2.3	-2.3	-2.3	86	-4.4	3	8	112	0.0	1029.0	0	0.000	0.0
20110304 02:50	-2.3	-2.3	-2.3	86	-4.4	5	10	135	0.0	1028.9	0	0.000	0.0
20110304 02:55	-2.3	-2.3	-2.3	86	-4.4	3	6	135	0.0	1028.9	0	0.000	0.0
20110304 03:00	-2.4	-2.4	-2.4	86	-4.4	3	10	135	0.0	1028.9	0	0.000	0.0
20110304 03:05	-2.4	-2.4	-2.4	86	-4.5	3	6	112	0.0	1028.8	0	0.000	0.0
20110304 03:10	-2.4	-2.4	-2.4	86	-4.5	2	5	112	0.0	1028.8	0	0.000	0.0
20110304 03:15	-2.5	-2.5	-2.5	86	-4.5	2	6	112	0.0	1028.7	0	0.000	0.0
20110304 03:20	-2.5	-2.5	-2.5	86	-4.5	2	5	112	0.0	1028.7	0	0.000	0.0
20110304 03:25	-2.6	-2.6	-2.6	86	-4.6	0	5	112	0.0	1028.6	0	0.000	0.0
20110304 03:30	-2.6	-2.6	-2.6	86	-4.6	0	3	112	0.0	1028.6	0	0.000	0.0
20110304 03:35	-2.7	-2.7	-2.7	86	-4.7	0	3	112	0.0	1028.5	0	0.000	0.0
20110304 03:40	-2.7	-2.7	-2.7	86	-4.7	0	0	-100000	0.0	1028.4	0	0.000	0.0
20110304 03:45	-2.7	-2.7	-2.7	86	-4.7	0	3	112	0.0	1028.3	0	0.000	0.0
20110304 03:50	-2.7	-2.7	-2.7	86	-4.7	0	2	112	0.0	1028.4	0	0.000	0.0
20110304 03:55	-2.7	-2.7	-2.7	86	-4.7	0	0	-100000	0.0	1028.3	0	0.000	0.0
20110304 04:00	-2.7	-2.7	-2.7	86	-4.7	0	3	112	0.0	1028.4	0	0.000	0.0
20110304 04:05	-2.8	-2.8	-2.8	86	-4.8	0	3	112	0.0	1028.7	0	0.000	0.0
20110304 04:10	-2.8	-2.8	-2.8	86	-4.8	2	6	112	0.0	1028.7	0	0.000	0.0
20110304 04:15	-2.9	-2.9	-2.9	86	-4.9	0	3	112	0.0	1028.7	0	0.000	0.0
20110304 04:20	-2.9	-2.9	-2.9	87	-4.7	2	5	112	0.0	1028.6	0	0.000	0.0
20110304 04:25	-2.9	-2.9	-2.9	86	-5.0	2	3	112	0.0	1028.6	0	0.000	0.0
20110304 04:30	-2.9	-2.9	-2.9	87	-4.8	2	5	112	0.0	1028.7	0	0.000	0.0
20110304 04:35	-3.0	-3.0	-3.0	87	-4.9	2	6	112	0.0	1028.8	0	0.000	0.0
20110304 04:40	-3.0	-3.0	-3.0	87	-4.9	3	6	112	0.0	1029.0	0	0.000	0.0
20110304 04:45	-2.9	-2.9	-2.9	87	-4.8	3	6	112	0.0	1029.0	0	0.000	0.0
20110304 04:50	-2.9	-2.9	-2.9	87	-4.8	3	6	112	0.0	1029.0	0	0.000	0.0
20110304 04:55	-2.9	-2.9	-2.9	87	-4.7	2	6	112	0.0	1029.0	0	0.000	0.0
20110304 05:00	-2.8	-2.8	-2.8	88	-4.5	5	10	90	0.0	1029.0	0	0.000	0.0
20110304 05:05	-2.8	-2.8	-2.8	88	-4.5	5	11	90	0.0	1029.0	0	0.000	0.0
20110304 05:10	-2.8	-2.8	-2.8	88	-4.5	5	8	135	0.0	1029.0	0	0.000	0.0
20110304 05:15	-2.8	-2.8	-2.8	88	-4.5	5	8	90	0.0	1029.1	0	0.000	0.0
20110304 05:20	-2.8	-5.4	-2.8	88	-4.5	6	14	90	0.0	1029.0	0	0.000	0.0
20110304 05:25	-2.7	-5.3	-2.7	88	-4.4	6	11	135	0.0	1029.0	0	0.000	0.0
20110304 05:30	-2.7	-5.3	-2.7	88	-4.4	6	11	135	0.0	1029.0	0	0.000	0.0
20110304 05:35	-2.7	-2.7	-2.7	88	-4.4	3	8	135	0.0	1028.9	0	0.000	0.0
20110304 05:40	-2.7	-2.7	-2.7	88	-4.4	5	11	90	0.0	1029.0	0	0.000	0.0
20110304 05:45	-2.7	-2.7	-2.7	88	-4.4	5	14	135	0.0	1028.9	0	0.000	0.0
20110304 05:50	-2.7	-2.7	-2.7	88	-4.4	5	10	112	0.0	1028.9	0	0.000	0.0
20110304 05:55	-2.7	-2.7	-2.7	88	-4.4	5	6	112	0.0	1029.0	0	0.000	0.0
20110304 06:00	-2.7	-5.3	-2.7	88	-4.4	6	11	112	0.0	1029.0	0	0.000	0.0
20110304 06:05	-2.8	-2.8	-2.8	89	-4.3	5	11	112	0.0	1029.1	0	0.000	0.0
20110304 06:10	-2.8	-2.8	-2.8	89	-4.3	5	10	90	0.0	1029.2	0	0.000	0.0
20110304 06:15	-2.8	-2.8	-2.8	89	-4.3	3	8	90	0.0	1029.2	0	0.000	0.0
20110304 06:20	-2.8	-2.8	-2.8	89	-4.3	5	10	90	0.0	1029.2	0	0.000	0.0
20110304 06:25	-2.8	-5.4	-2.8	89	-4.3	6	10	112	0.0	1029.2	0	0.000	0.0
20110304 06:30	-2.8	-2.8	-2.8	89	-4.3	5	8	90	0.0	1029.2	0	0.000	0.0
20110304 06:35	-2.8	-2.8	-2.8	89	-4.3	5	10	112	0.0	1029.1	0	0.000	0.0
20110304 06:40	-2.8	-6.1	-2.8	89	-4.4	8	11	112	0.0	1029.2	0	0.000	0.0
20110304 06:45	-2.9	-2.9	-2.9	89	-4.4	5	10	90	0.0	1029.2	0	0.000	0.0
20110304 06:50	-2.9	-5.5	-2.9	89	-4.4	6	14	112	0.0	1029.2	0	0.000	0.0
20110304 06:55	-2.9	-2.9	-2.9	89	-4.4	5	14	135	0.0	1029.2	0	0.000	0.0
20110304 07:00	-2.8	-2.8	-2.8	89	-4.4	5	8	135	0.0	1029.2	0	0.000	0.0
20110304 07:05	-2.8	-2.8	-2.8	90	-4.2	5	10	135	0.0	1029.4	0	0.000	0.0
20110304 07:10	-2.8	-2.8	-2.8	90	-4.2	5	10	135	0.0	1029.5	5	0.000	0.0
20110304 07:15	-2.8	-2.8	-2.8	89	-4.3	5	11	135	0.0	1029.5	5	0.000	0.0
20110304 07:20	-2.8	-2.8	-2.8	90	-4.2	5	10	112	0.0	1029.6	7	0.000	0.0
20110304 07:25	-2.9	-5.5	-2.9	89	-4.4	6	11	68	0.0	1029.6	10	0.000	0.0
20110304 07:30	-2.9	-2.9	-2.9	89	-4.5	5	8	68	0.0	1029.6	11	0.000	0.0
20110304 07:35	-2.9	-2.9	-2.9	90	-4.4	5	8	68	0.0	1029.5	16	0.000	0.0
20110304 07:40	-2.9	-5.5	-2.9	90	-4.3	6	11	68	0.0	1029.6	18	0.000	0.0
20110304 07:45	-2.9	-2.9	-2.9	90	-4.3	5	10	90	0.0	1029.6	21	0.000	0.0
20110304 07:50	-2.9	-2.9	-2.9	90	-4.3	3	8	135	0.0	1029.7	25	0.000	0.0
20110304 07:55	-2.8	-2.8	-2.8	90	-4.2	5	11	135	0.0	1029.8	22	0.000	0.0
20110304 08:00	-2.8	-6.0	-2.8	90	-4.2	8	14	135	0.0	1029.8	24	0.000	0.0
20110304 08:05	-2.8	-5.4	-2.8	90	-4.2	6	13	135	0.0	1029.9	28	0.000	0.0
20110304 08:10	-2.8	-5.5	-2.8	90	-4.2	6	14	135	0.0	1029.8	-100000	0.000	0.0
20110304 08:15	-2.8	-2.8	-2.8	90	-4.2	5	8	45	0.0	1030.0	33	0.000	0.0
20110304 08:20	-2.8	-2.8	-2.8	90	-4.2	5	8	45	0.0	1029.9	36	0.000	0.0
20110304 08:25	-2.8	-2.8	-2.8	90	-4.2	5	11	68	0.0	1030.0	39	0.000	0.0
20110304 08:30	-2.7	-2.7	-2.7	90	-4.1	5	10	90	0.0	1030.0	44	0.000	0.0
20110304 08:35	-2.7	-2.7	-2.7	90	-4.1	3	10	90	0.0	1030.0	50	0.000	0.0
20110304 08:40	-2.7	-2.7	-2.7	90	-4.1	5	11	112	0.0	1030.1	48	0.000	0.0
20110304 08:45	-2.7	-5.3	-2.7	90	-4.1	6	16	90	0.0	1030.1	54	0.000	0.0
20110304 08:50	-2.7	-2.7	-2.7	90	-4.1	5	10	90	0.0	1030.1	57	0.000	0.0
20110304 08:55	-2.6	-2.6	-2.6	90	-4.0	5	10	135	0.0	1030.2	63	0.000	0.0
20110304 09:00	-2.6	-2.6	-2.6	90	-4.0	3	8	90	0.0	1030.3	62	0.025	0.0
20110304 09:05	-2.7	-5.3	-2.7	90	-4.1	6	16	68	0.0	1030.3	59	0.000	0.0
20110304 09:10	-2.6	-5.2	-2.6	90	-4.0	6	16	90	0.0	1030.3	63	0.000	0.0
20110304 09:15	-2.6	-2.6	-2.6	90	-4.0	5	8	90	0.0	1030.3	64	0.000	0.0
20110304 09:20	-2.6	-2.6	-2.6	90	-4.0	3	8	112	0.0	1030.2	64	0.000	0.0
20110304 09:25	-2.6	-5.1	-2.6	90	-4.0	6	11	112	0.0	1030.3	68	0.000	0.0
20110304 09:30	-2.5	-2.5	-2.5	90	-3.9	5	10	112	0.0	1030.2	73	0.000	0.0
20110304 09:35	-2.4	-2.4	-2.4	90	-3.9	5	10	90	0.0	1030.2	76	0.000	0.0
20110304 09:40	-2.5	-2.5	-2.5	90	-3.9	5	11	45	0.0	1030.3	78	0.000	0.0
20110304 09:45	-2.5	-2.5	-2.5	90	-3.9	5	10	90	0.0	1030.4	77	0.000	0.0
20110304 09:50	-2.4	-5.0	-2.4	90	-3.9	6	8	135	0.0	1030.4	78	0.000	0.0
20110304 09:55	-2.3	-4.8	-2.3	90	-3.7	6	10	112	0.0	1030.4	94	0.000	0.0
20110304 10:00	-2.2	-5.3	-2.2	90	-3.6	8	14	112	0.0	1030.4	105	0.025	0.5
20110304 10:05	-2.2	-2.2	-2.2	90	-3.6	5	10	90	0.0	1030.5	106	0.000	0.5
20110304 10:10	-2.2	-5.3	-2.2	89	-3.7	8	11	135	0.0	1030.5	108	0.000	0.5
20110304 10:15	-2.1	-2.1	-2.1	90	-3.5	5	10	112	0.0	1030.5	112	0.000	0.6
20110304 10:20	-2.1	-2.1	-2.1	89	-3.7	5	10	90	0.0	1030.4	115	0.000	0.6
20110304 10:25	-2.1	-4.6	-2.1	89	-3.6	6	10	112	0.0	1030.4	120	0.000	0.6
20110304 10:30	-2.0	-2.0	-2.0	89	-3.6	5	11	135	0.0	1030.5	112	0.000	0.6
20110304 10:35	-2.0	-2.0	-2.0	89	-3.6	5	8	112	0.0	1030.6	108	0.000	0.6
20110304 10:40	-2.0	-4.5	-2.0	89	-3.6	6	13	68	0.0	1030.6	109	0.000	0.6
20110304 10:45	-1.9	-1.9	-1.9	89	-3.5	3	8	68	0.0	1030.5	115	0.000	0.6
20110304 10:50	-1.9	-4.4	-1.9	89	-3.5	6	10	90	0.0	1030.5	122	0.000	0.7
20110304 10:55	-1.8	-4.3	-1.8	89	-3.4	6	14	68	0.0	1030.5	140	0.000	0.8
20110304 11:00	-1.8	-1.8	-1.8	89	-3.4	5	10	112	0.0	1030.5	152	0.051	0.9
20110304 11:05	-1.8	-1.8	-1.8	89	-3.3	5	10	68	0.0	1030.4	146	0.000	0.8
20110304 11:10	-1.8	-4.2	-1.8	88	-3.5	6	11	68	0.0	1030.4	129	0.000	0.8
20110304 11:15	-1.7	-1.7	-1.7	88	-3.4	5	10	90	0.0	1030.5	130	0.000	0.8
20110304 11:20	-1.7	-4.7	-1.7	88	-3.4	8	13	135	0.0	1030.4	129	0.000	0.7
20110304 11:25	-1.6	-1.6	-1.6	88	-3.3	5	10	135	0.0	1030.4	145	0.000	0.8
20110304 11:30	-1.5	-1.5	-1.5	88	-3.2	5	10	90	0.0	1030.4	132	0.000	0.8
20110304 11:35	-1.5	-1.5	-1.5	88	-3.2	3	10	90	0.0	1030.3	136	0.000	0.8
20110304 11:40	-1.5	-1.5	-1.5	87	-3.4	5	8	90	0.0	1030.4	138	0.000	0.8
20110304 11:45	-1.4	-1.4	-1.4	87	-3.3	5	8	90	0.0	1030.3	124	0.000	0.7
20110304 11:50	-1.3	-1.3	-1.3	87	-3.2	5	13	68	0.0	1030.1	139	0.000	0.8
20110304 11:55	-1.3	-1.3	-1.3	87	-3.2	5	11	68	0.0	1030.1	152	0.000	0.9
20110304 12:00	-1.3	-1.3	-1.3	87	-3.2	3	10	90	0.0	1030.0	138	0.051	0.8
20110304 12:05	-1.2	-1.2	-1.2	87	-3.1	5	10	68	0.0	1030.2	137	0.000	0.8
20110304 12:10	-1.2	-1.2	-1.2	87	-3.0	5	14	112	0.0	1030.2	-100000	0.000	1.0
20110304 12:15	-1.0	-3.3	-1.0	86	-3.0	6	13	135	0.0	1030.1	189	0.000	1.1
20110304 12:20	-0.9	-3.8	-0.9	86	-2.9	8	16	112	0.0	1030.1	176	0.000	1.0
20110304 12:25	-0.8	-0.8	-0.8	85	-3.0	5	14	135	0.0	1030.0	178	0.000	1.0
20110304 12:30	-0.9	-0.9	-0.9	85	-3.1	3	10	135	0.0	1030.0	170	0.000	1.0
20110304 12:35	-0.8	-0.8	-0.8	85	-3.0	3	8	112	0.0	1029.8	180	0.000	1.0
20110304 12:40	-0.7	-0.7	-0.7	85	-2.9	5	10	90	0.0	1029.7	198	0.000	1.1
20110304 12:45	-0.7	-0.7	-0.7	85	-2.9	5	8	112	0.0	1029.6	199	0.000	1.1
20110304 12:50	-0.6	-0.6	-0.6	85	-2.8	5	10	90	0.0	1029.6	200	0.000	1.1
20110304 12:55	-0.6	-0.6	-0.6	85	-2.8	3	8	90	0.0	1029.5	198	0.000	1.1
20110304 13:00	-0.5	-2.8	-0.5	85	-2.7	6	10	68	0.0	1029.5	184	0.051	1.0
20110304 13:05	-0.6	-2.8	-0.6	84	-2.9	6	14	68	0.0	1029.4	195	0.000	1.1
20110304 13:10	-0.5	-2.8	-0.5	84	-2.9	6	11	90	0.0	1029.4	201	0.000	1.2
20110304 13:15	-0.4	-0.4	-0.4	84	-2.8	5	8	135	0.0	1029.5	217	0.000	1.2
20110304 13:20	-0.3	-0.3	-0.3	84	-2.6	3	8	135	0.0	1029.5	199	0.000	1.0
20110304 13:25	-0.2	-2.4	-0.2	84	-2.6	6	10	135	0.0	1029.4	195	0.000	1.1
20110304 13:30	-0.1	-2.3	-0.1	83	-2.6	6	11	112	0.0	1029.4	214	0.000	1.2
20110304 13:35	-0.1	-2.2	-0.1	83	-2.6	6	10	90	0.0	1029.4	213	0.000	1.1
20110304 13:40	0.0	-3.2	0.0	83	-2.5	10	14	135	0.0	1029.3	226	0.000	1.2
20110304 13:45	-0.1	-0.1	-0.1	82	-2.8	5	10	135	0.0	1029.3	226	0.000	1.1
20110304 13:50	-0.1	-0.1	-0.1	83	-2.6	3	8	68	0.0	1029.1	262	0.000	1.2
20110304 13:55	0.1	0.1	0.1	83	-2.5	3	8	22	0.0	1029.0	292	0.000	1.2
20110304 14:00	0.2	0.2	0.2	83	-2.3	3	6	90	0.0	1029.0	310	0.076	1.2
20110304 14:05	0.3	-2.8	0.3	82	-2.4	10	16	68	0.0	1029.1	203	0.000	0.9
20110304 14:10	0.3	0.3	0.3	82	-2.4	3	11	112	0.0	1029.1	233	0.000	1.0
20110304 14:15	0.3	0.3	0.3	83	-2.3	5	11	90	0.0	1029.1	231	0.000	1.1
20110304 14:20	0.3	0.3	0.3	82	-2.4	5	14	90	0.0	1028.9	242	0.000	1.1
20110304 14:25	0.4	0.4	0.4	82	-2.3	5	10	68	0.0	1028.9	261	0.000	1.1
20110304 14:30	0.4	-1.7	0.4	81	-2.4	6	10	68	0.0	1028.8	280	0.000	1.2
20110304 14:35	0.5	-1.6	0.5	82	-2.2	6	10	68	0.0	1028.8	317	0.000	1.3
20110304 14:40	0.7	-1.3	0.7	81	-2.2	6	11	45	0.0	1028.6	449	0.000	1.3
20110304 14:45	0.9	-1.1	0.9	81	-1.9	6	13	22	0.0	1028.3	461	0.000	1.3
20110304 14:50	1.1	-2.3	1.1	81	-1.8	11	18	22	0.0	1028.2	375	0.000	1.2
20110304 14:55	1.1	-1.5	1.1	80	-2.0	8	14	45	0.0	1028.2	340	0.000	1.1
20110304 15:00	1.1	-0.9	1.1	80	-1.9	6	16	45	0.0	1028.3	296	0.102	1.1
20110304 15:05	1.2	1.2	1.2	80	-1.9	5	10	90	0.0	1028.3	376	0.000	1.1
20110304 15:10	1.3	1.3	1.3	80	-1.7	5	8	90	0.0	1028.4	363	0.000	1.0
20110304 15:15	1.4	1.4	1.4	79	-1.8	5	11	45	0.0	1028.2	343	0.000	0.9
20110304 15:20	1.6	1.6	1.6	79	-1.6	5	10	90	0.0	1028.1	337	0.000	0.9
20110304 15:25	1.7	1.7	1.7	78	-1.8	5	8	68	0.0	1028.1	299	0.000	0.9
20110304 15:30	1.9	1.9	1.9	78	-1.5	5	6	112	0.0	1028.1	303	0.000	0.8
20110304 15:35	2.1	2.1	2.1	77	-1.5	3	8	135	0.0	1028.1	291	0.000	0.8
20110304 15:40	2.3	2.3	2.3	77	-1.3	3	10	112	0.0	1028.0	286	0.000	0.7
20110304 15:45	2.4	2.4	2.4	76	-1.4	3	8	90	0.0	1027.9	281	0.000	0.7
20110304 15:50	2.6	2.6	2.6	76	-1.2	3	6	90	0.0	1027.6	271	0.000	0.6
20110304 15:55	2.7	2.7	2.7	75	-1.3	3	8	90	0.0	1027.6	253	0.000	0.6
20110304 16:00	2.7	2.7	2.7	75	-1.3	5	6	112	0.0	1027.5	239	0.127	0.5
20110304 16:05	2.8	2.8	2.8	75	-1.2	3	5	112	0.0	1027.4	226	0.000	0.5
20110304 16:10	2.9	2.9	2.9	75	-1.0	3	8	135	0.0	1027.5	208	0.000	0.5
20110304 16:15	3.1	3.1	3.1	75	-0.9	3	8	135	0.0	1027.4	209	0.000	0.0
20110304 16:20	3.2	3.2	3.2	74	-1.0	5	11	90	0.0	1027.4	191	0.000	0.0
20110304 16:25	3.3	3.3	3.3	75	-0.7	5	11	45	0.0	1027.3	175	0.000	0.0
20110304 16:30	3.3	1.7	3.3	75	-0.7	6	11	68	0.0	1027.2	164	0.000	0.0
20110304 16:35	3.3	1.7	3.3	74	-0.9	6	11	68	0.0	1027.2	144	0.000	0.0
20110304 16:40	3.3	3.3	3.3	74	-0.9	5	11	68	0.0	1027.3	134	0.000	0.0
20110304 16:45	3.3	3.3	3.3	75	-0.7	3	10	112	0.0	1027.3	122	0.000	0.0
20110304 16:50	3.3	3.3	3.3	75	-0.7	3	8	90	0.0	1027.3	108	0.000	0.0
20110304 16:55	3.3	3.3	3.3	75	-0.7	5	8	68	0.0	1027.3	95	0.000	0.0
20110304 17:00	3.3	3.3	3.3	75	-0.7	3	6	68	0.0	1027.3	85	0.076	0.0
20110304 17:05	3.3	3.3	3.3	75	-0.7	5	10	68	0.0	1027.2	73	0.000	0.0
20110304 17:10	3.3	1.7	3.3	75	-0.7	6	8	68	0.0	1027.2	62	0.000	0.0
20110304 17:15	3.2	3.2	3.2	76	-0.6	2	6	68	0.0	1027.2	54	0.000	0.0
20110304 17:20	3.2	3.2	3.2	76	-0.7	0	3	68	0.0	1027.2	43	0.000	0.0
20110304 17:25	3.1	3.1	3.1	76	-0.8	3	6	68	0.0	1027.2	36	0.000	0.0
20110304 17:30	2.9	2.9	2.9	76	-0.9	2	6	68	0.0	1027.3	27	0.000	0.0
20110304 17:35	2.8	2.8	2.8	77	-0.8	2	5	68	0.0	1027.3	22	0.000	0.0
20110304 17:40	2.7	2.7	2.7	77	-1.0	2	3	68	0.0	1027.4	18	0.000	0.0
20110304 17:45	2.6	2.6	2.6	78	-0.9	2	3	68	0.0	1027.4	14	0.000	0.0
20110304 17:50	2.5	2.5	2.5	78	-0.9	0	0	-100000	0.0	1027.4	11	0.000	0.0
20110304 17:55	2.4	2.4	2.4	78	-1.1	0	0	-100000	0.0	1027.5	8	0.000	0.0
20110304 18:00	2.3	2.3	2.3	78	-1.1	0	0	-100000	0.0	1027.5	3	0.025	0.0
20110304 18:05	2.2	2.2	2.2	78	-1.2	0	0	-100000	0.0	1027.4	0	0.000	0.0
20110304 18:10	2.1	2.1	2.1	78	-1.4	0	0	-100000	0.0	1027.4	0	0.000	0.0
20110304 18:15	1.9	1.9	1.9	78	-1.5	0	2	68	0.0	1027.5	0	0.000	0.0
20110304 18:20	1.7	1.7	1.7	79	-1.5	0	0	-100000	0.0	1027.5	0	0.000	0.0
20110304 18:25	1.6	1.6	1.6	79	-1.7	0	2	68	0.0	1027.4	0	0.000	0.0
20110304 18:30	1.3	1.3	1.3	80	-1.7	3	5	68	0.0	1027.5	0	0.000	0.0
20110304 18:35	1.3	1.3	1.3	81	-1.6	0	2	68	0.0	1027.5	0	0.000	0.0
20110304 18:40	1.3	1.3	1.3	81	-1.6	2	5	68	0.0	1027.5	0	0.000	0.0
20110304 18:45	1.2	1.2	1.2	81	-1.7	3	5	68	0.0	1027.5	0	0.000	0.0
20110304 18:50	1.2	1.2	1.2	81	-1.7	0	3	68	0.0	1027.5	0	0.000	0.0
20110304 18:55	1.0	1.0	1.0	82	-1.7	0	2	68	0.0	1027.5	0	0.000	0.0
20110304 19:00	0.9	0.9	0.9	82	-1.8	0	0	-100000	0.0	1027.4	0	0.000	0.0
20110304 19:05	0.8	0.8	0.8	81	-2.1	0	0	-100000	0.0	1027.4	0	0.000	0.0
20110304 19:10	0.6	0.6	0.6	82	-2.1	0	0	-100000	0.0	1027.5	0	0.000	0.0
20110304 19:15	0.4	0.4	0.4	82	-2.3	0	0	-100000	0.0	1027.4	0	0.000	0.0
20110304 19:20	0.3	0.3	0.3	82	-2.4	0	0	-100000	0.0	1027.4	0	0.000	0.0
20110304 19:25	0.1	0.1	0.1	83	-2.4	0	0	-100000	0.0	1027.5	0	0.000	0.0
20110304 19:30	0.1	0.1	0.1	83	-2.5	0	0	-100000	0.0	1027.5	0	0.000	0.0
20110304 19:35	0.0	0.0	0.0	84	-2.4	0	0	-100000	0.0	1027.5	0	0.000	0.0
20110304 19:40	-0.1	-0.1	-0.1	83	-2.6	0	0	-100000	0.0	1027.5	0	0.000	0.0
20110304 19:45	-0.2	-0.2	-0.2	84	-2.5	0	0	-100000	0.0	1027.4	0	0.000	0.0
20110304 19:50	-0.2	-0.2	-0.2	84	-2.6	0	0	-100000	0.0	1027.4	0	0.000	0.0
20110304 19:55	-0.2	-0.2	-0.2	84	-2.6	0	0	-100000	0.0	1027.4	0	0.000	0.0
20110304 20:00	-0.3	-0.3	-0.3	84	-2.6	0	0	-100000	0.0	1027.3	0	0.000	0.0
20110304 20:05	-0.3	-0.3	-0.3	83	-2.9	0	0	-100000	0.0	1027.2	0	0.000	0.0
20110304 20:10	-0.4	-0.4	-0.4	84	-2.8	0	0	-100000	0.0	1027.3	0	0.000	0.0
20110304 20:15	-0.5	-0.5	-0.5	84	-2.9	0	0	-100000	0.0	1027.3	0	0.000	0.0
20110304 20:20	-0.6	-0.6	-0.6	85	-2.8	0	0	-100000	0.0	1027.3	0	0.000	0.0
20110304 20:25	-0.7	-0.7	-0.7	85	-2.9	0	2	68	0.0	1027.4	0	0.000	0.0
20110304 20:30	-0.8	-0.8	-0.8	85	-3.0	2	5	68	0.0	1027.3	0	0.000	0.0
20110304 20:35	-0.8	-0.8	-0.8	85	-3.0	3	5	68	0.0	1027.2	0	0.000	0.0
20110304 20:40	-0.9	-0.9	-0.9	86	-3.0	2	3	68	0.0	1027.4	0	0.000	0.0
20110304 20:45	-0.9	-0.9	-0.9	86	-3.0	3	5	68	0.0	1027.4	0	0.000	0.0
20110304 20:50	-1.0	-1.0	-1.0	86	-3.0	3	6	158	0.0	1027.4	0	0.000	0.0
20110304 20:55	-1.1	-1.1	-1.1	86	-3.1	3	6	180	0.0	1027.4	0	0.000	0.0
20110304 21:00	-1.1	-1.1	-1.1	86	-3.1	3	6	180	0.0	1027.4	0	0.000	0.0
20110304 21:05	-1.2	-1.2	-1.2	86	-3.2	5	8	180	0.0	1027.2	0	0.000	0.0
20110304 21:10	-1.2	-1.2	-1.2	86	-3.3	5	8	180	0.0	1027.3	0	0.000	0.0
20110304 21:15	-1.3	-1.3	-1.3	86	-3.3	5	8	202	0.0	1027.2	0	0.000	0.0
20110304 21:20	-1.3	-1.3	-1.3	86	-3.3	3	6	202	0.0	1027.2	0	0.000	0.0
20110304 21:25	-1.3	-1.3	-1.3	86	-3.3	3	6	202	0.0	1027.1	0	0.000	0.0
20110304 21:30	-1.3	-1.3	-1.3	86	-3.4	0	3	202	0.0	1027.2	0	0.000	0.0
20110304 21:35	-1.3	-1.3	-1.3	86	-3.4	0	3	202	0.0	1027.2	0	0.000	0.0
20110304 21:40	-1.3	-1.3	-1.3	86	-3.4	0	3	202	0.0	1027.2	0	0.000	0.0
20110304 21:45	-1.4	-1.4	-1.4	87	-3.3	0	0	-100000	0.0	1027.2	0	0.000	0.0
20110304 21:50	-1.4	-1.4	-1.4	86	-3.4	0	5	202	0.0	1027.2	0	0.000	0.0
20110304 21:55	-1.4	-1.4	-1.4	86	-3.5	2	5	202	0.0	1027.3	0	0.000	0.0
20110304 22:00	-1.6	-1.6	-1.6	86	-3.6	3	6	202	0.0	1027.3	0	0.000	0.0
20110304 22:05	-1.6	-1.6	-1.6	86	-3.6	3	6	202	0.0	1027.2	0	0.000	0.0
20110304 22:10	-1.7	-1.7	-1.7	86	-3.7	3	5	202	0.0	1027.2	0	0.000	0.0
20110304 22:15	-1.7	-1.7	-1.7	87	-3.6	3	6	202	0.0	1027.1	0	0.000	0.0
20110304 22:20	-1.8	-1.8	-1.8	87	-3.7	2	5	202	0.0	1027.1	0	0.000	0.0
20110304 22:25	-1.8	-1.8	-1.8	87	-3.7	3	5	202	0.0	1027.1	0	0.000	0.0
20110304 22:30	-1.8	-1.8	-1.8	87	-3.7	0	3	202	0.0	1027.0	0	0.000	0.0
20110304 22:35	-1.8	-1.8	-1.8	87	-3.7	0	0	-100000	0.0	1027.0	0	0.000	0.0
20110304 22:40	-1.8	-1.8	-1.8	87	-3.7	0	0	-100000	0.0	1027.0	0	0.000	0.0
20110304 22:45	-1.9	-1.9	-1.9	87	-3.8	0	0	-100000	0.0	1026.9	0	0.000	0.0
20110304 22:50	-1.9	-1.9	-1.9	87	-3.8	0	0	-100000	0.0	1026.9	0	0.000	0.0
20110304 22:55	-2.0	-2.0	-2.0	87	-3.9	0	0	-100000	0.0	1027.0	0	0.000	0.0
20110304 23:00	-2.1	-2.1	-2.1	87	-3.9	0	0	-100000	0.0	1027.0	0	0.000	0.0
20110304 23:05	-2.1	-2.1	-2.1	87	-4.0	0	0	-100000	0.0	1026.9	0	0.000	0.0
20110304 23:10	-2.2	-2.2	-2.2	87	-4.0	0	0	-100000	0.0	1026.9	0	0.000	0.0
20110304 23:15	-2.2	-2.2	-2.2	87	-4.1	0	0	-100000	0.0	1026.7	0	0.000	0.0
20110304 23:20	-2.2	-2.2	-2.2	87	-4.0	0	0	-100000	0.0	1026.8	0	0.000	0.0
20110304 23:25	-2.2	-2.2	-2.2	87	-4.0	0	0	-100000	0.0	1026.7	0	0.000	0.0
20110304 23:30	-2.2	-2.2	-2.2	86	-4.2	0	0	-100000	0.0	1026.7	0	0.000	0.0
20110304 23:35	-2.3	-2.3	-2.3	86	-4.3	0	0	-100000	0.0	1026.7	0	0.000	0.0
20110304 23:40	-2.3	-2.3	-2.3	86	-4.3	0	0	-100000	0.0	1026.6	0	0.000	0.0
20110304 23:45	-2.3	-2.3	-2.3	86	-4.4	0	0	-100000	0.0	1026.5	0	0.000	0.0
20110304 23:50	-2.5	-2.5	-2.5	86	-4.5	0	3	202	0.0	1026.5	0	0.000	0.0
20110304 23:55	-2.6	-2.6	-2.6	86	-4.6	3	5	202	0.0	1026.6	0	0.000	0.0



Please note the license to use and transfer of this data:
http://creativecommons.org/licenses/by-nc-sa/3.0/deed.en

Bitte beachten sie die Lizenz zur Verwertung und Weitergabe der Daten:
http://creativecommons.org/licenses/by-nc-sa/3.0/deed.de

zurück zur Übersicht der Archivdaten (Monats und Tagesdaten)

Cookies helfen bei der Bereitstellung von Inhalten. Durch die Nutzung dieser Seiten erklärst du dich damit einverstanden, dass Cookies auf deinem Rechner gespeichert werden. Weitere Information